Data for 11/02/2010

Time Sea-Level Adjusted Pressure Absolute Pressure Temperature Relative Humidity Dew Point Precipitation   
(mb) (inHg) (mb) (inHg) (C) (F) (%) (C) (F) (mm) (in)
00:01 1030 30.42 859 25.37 2.1 35.8 82 -0.7 30.8 2.402 0.095
00:02 1030 30.42 859 25.37 2.2 36 82 -0.5 31.1 2.465 0.097
00:03 1030 30.42 859 25.37 2.4 36.3 81 -0.6 30.9 2.669 0.105
00:04 1030 30.42 859 25.37 2.4 36.3 78 -1.1 30 2.646 0.104
00:05 1030 30.42 859 25.37 2 35.6 80 -1.1 30 2.295 0.09
00:06 1030 30.42 859 25.37 1.6 35 82 -1.1 30 1.989 0.078
00:07 1030 30.42 859 25.37 1.4 34.6 84 -0.9 30.3 1.746 0.069
00:08 1030 30.42 859 25.37 1.4 34.6 85 -0.8 30.5 1.757 0.069
00:09 1030 30.42 859 25.37 1.6 34.8 84 -0.8 30.5 1.882 0.074
00:10 1030 30.42 859 25.37 1.7 35.1 82 -1 30.2 1.984 0.078
00:11 1030 30.42 859 25.37 1.8 35.2 82 -1 30.2 2.063 0.081
00:12 1030 30.42 859 25.37 1.8 35.3 81 -1 30.2 2.097 0.083
00:13 1029 30.39 859 25.37 1.8 35.3 81 -1 30.1 2.069 0.081
00:14 1029 30.39 859 25.37 1.7 35.1 82 -1 30.3 2.046 0.081
00:15 1029 30.39 859 25.37 1.7 35.1 83 -0.8 30.6 2.052 0.081
00:16 1030 30.42 859 25.37 1.8 35.3 82 -0.8 30.5 2.12 0.083
00:17 1030 30.42 859 25.37 1.8 35.3 80 -1.3 29.7 2.103 0.083
00:18 1030 30.42 859 25.37 1.4 34.6 83 -1.2 29.9 1.814 0.071
00:19 1030 30.42 859 25.37 1.4 34.4 85 -0.9 30.3 1.735 0.068
00:20 1030 30.42 859 25.37 1.6 34.9 84 -0.8 30.5 1.904 0.075
00:21 1030 30.42 859 25.37 1.9 35.4 83 -0.8 30.6 2.131 0.084
00:22 1030 30.42 859 25.37 2.2 35.9 81 -0.7 30.8 2.369 0.093
00:23 1030 30.42 859 25.37 2.3 36.1 78 -1.1 30 2.442 0.096
00:24 1030 30.42 859 25.37 2 35.5 79 -1.2 29.8 2.204 0.087
00:25 1030 30.42 859 25.37 1.7 35 82 -1.1 30 1.933 0.076
00:26 1030 30.42 859 25.37 1.5 34.7 83 -1 30.2 1.859 0.073
00:27 1030 30.42 859 25.37 1.5 34.7 84 -0.9 30.4 1.819 0.072
00:28 1030 30.42 859 25.37 1.6 34.9 83 -0.9 30.4 1.921 0.076
00:29 1030 30.42 859 25.37 1.9 35.4 81 -1 30.2 2.052 0.081
00:30 1030 30.42 859 25.37 1.9 35.5 81 -1.1 30.1 2.131 0.084
00:31 1030 30.42 859 25.37 1.8 35.3 81 -1.1 30 2.114 0.083
00:32 1030 30.42 859 25.37 1.6 35 81 -1.3 29.7 1.95 0.077
00:33 1030 30.42 859 25.37 1.4 34.6 83 -1.1 30.1 1.791 0.071
00:34 1030 30.42 859 25.37 1.4 34.5 84 -1 30.3 1.769 0.07
00:35 1030 30.42 859 25.37 1.5 34.8 84 -0.9 30.4 1.87 0.074
00:36 1030 30.42 859 25.37 1.7 35 82 -1 30.1 1.967 0.077
00:37 1030 30.42 859 25.37 1.5 34.8 82 -1.1 29.9 1.865 0.073
00:38 1030 30.42 859 25.37 1.3 34.4 83 -1.2 29.9 1.718 0.068
00:39 1030 30.42 859 25.37 1.2 34.1 84 -1.2 29.8 1.621 0.064
00:40 1030 30.42 859 25.37 1.2 34.1 85 -1.1 30 1.508 0.059
00:41 1030 30.42 859 25.37 1.1 34 86 -1 30.1 1.525 0.06
00:42 1030 30.42 859 25.37 1.1 34.1 86 -1 30.2 1.531 0.06
00:43 1030 30.42 859 25.37 1.2 34.1 85 -1.1 30.1 1.599 0.063
00:44 1030 30.42 859 25.37 1.2 34.2 85 -1.1 30 1.582 0.062
00:45 1030 30.42 859 25.37 1.2 34.2 85 -1 30.2 1.576 0.062
00:46 1030 30.42 859 25.37 1.2 34.2 86 -0.8 30.5 1.604 0.063
00:47 1030 30.42 859 25.37 1.3 34.4 86 -0.8 30.6 1.718 0.068
00:48 1030 30.42 859 25.37 1.4 34.6 85 -0.8 30.6 1.791 0.071
00:49 1030 30.42 859 25.37 1.6 34.8 84 -0.9 30.4 1.893 0.075
00:50 1030 30.42 859 25.37 1.6 34.8 84 -0.8 30.5 1.91 0.075
00:51 1030 30.42 859 25.37 1.5 34.8 85 -0.7 30.8 1.921 0.076
00:52 1030 30.42 859 25.37 1.7 35 85 -0.5 31.1 2.063 0.081
00:53 1030 30.42 859 25.37 1.9 35.4 85 -0.4 31.3 2.267 0.089
00:54 1030 30.42 859 25.37 2.1 35.8 84 -0.3 31.5 2.448 0.096
00:55 1030 30.42 859 25.37 2.3 36.1 82 -0.5 31.2 2.584 0.102
00:56 1030 30.42 859 25.37 2.3 36.1 83 -0.3 31.5 2.567 0.101
00:57 1030 30.42 859 25.37 2.3 36.1 83 -0.2 31.6 2.635 0.104
00:58 1030 30.42 859 25.37 2.3 36.1 83 -0.3 31.5 2.601 0.102
00:59 1030 30.42 859 25.37 2.1 35.8 84 -0.2 31.6 2.533 0.1
01:00 1030 30.42 859 25.37 2.2 36 85 -0.1 31.9 2.601 0.102
01:01 1030 30.42 859 25.37 2.4 36.3 84 -0.1 31.8 2.72 0.107
01:02 1030 30.42 859 25.37 2.5 36.5 84 0 32 2.872 0.113
01:03 1030 30.42 859 25.37 2.6 36.7 83 -0 31.9 2.98 0.117
01:04 1030 30.42 859 25.37 2.6 36.6 82 -0.1 31.8 2.929 0.115
01:05 1030 30.42 859 25.37 2.4 36.4 83 -0.1 31.8 2.827 0.111
01:06 1030 30.42 859 25.37 2.3 36.1 84 -0.2 31.6 2.669 0.105
01:07 1030 30.42 859 25.37 2.2 35.9 84 -0.2 31.6 2.584 0.102
01:08 1030 30.42 859 25.37 2.2 35.9 85 -0.2 31.7 2.538 0.1
01:09 1030 30.42 859 25.37 2.2 36 84 -0.2 31.7 2.623 0.103
01:10 1030 30.42 859 25.37 2.3 36.1 84 -0.2 31.6 2.663 0.105
01:11 1030 30.42 859 25.37 2.2 36 84 -0.2 31.6 2.646 0.104
01:12 1030 30.42 859 25.37 2.3 36.1 84 -0.2 31.6 2.64 0.104
01:13 1030 30.42 859 25.37 2.3 36.1 84 -0.2 31.6 2.646 0.104
01:14 1030 30.42 859 25.37 2.3 36.1 83 -0.3 31.4 2.652 0.104
01:15 1030 30.42 859 25.37 2.2 36 83 -0.4 31.2 2.578 0.101
01:16 1030 30.42 859 25.37 2.2 35.9 84 -0.2 31.6 2.516 0.099
01:17 1030 30.42 859 25.37 2.2 36 83 -0.4 31.2 2.601 0.102
01:18 1030 30.42 859 25.37 2.1 35.7 83 -0.6 30.9 2.431 0.096
01:19 1030 30.42 859 25.37 1.9 35.4 85 -0.4 31.3 2.272 0.089
01:20 1030 30.42 859 25.37 1.8 35.3 84 -0.6 30.9 2.204 0.087
01:21 1030 30.42 859 25.37 1.6 34.9 85 -0.6 30.9 2.006 0.079
01:22 1030 30.42 859 25.37 1.6 34.8 85 -0.7 30.7 1.95 0.077
01:23 1030 30.42 859 25.37 1.5 34.6 85 -0.8 30.6 1.842 0.073
01:24 1030 30.42 859 25.37 1.3 34.4 86 -0.7 30.7 1.746 0.069
01:25 1030 30.42 859 25.37 1.2 34.2 87 -0.7 30.7 1.655 0.065
01:26 1030 30.42 859 25.37 1.3 34.3 88 -0.5 31.2 1.735 0.068
01:27 1030 30.42 859 25.37 1.5 34.7 86 -0.6 30.9 1.904 0.075
01:28 1030 30.42 859 25.37 1.6 34.8 85 -0.6 30.9 1.921 0.076
01:29 1030 30.42 859 25.37 1.6 34.8 86 -0.5 31.2 1.944 0.077
01:30 1030 30.42 859 25.37 1.6 34.9 86 -0.5 31.1 1.995 0.079
01:31 1030 30.42 859 25.37 1.7 35 87 -0.3 31.4 2.035 0.08
01:32 1030 30.42 859 25.37 1.8 35.3 86 -0.3 31.4 2.165 0.085
01:33 1030 30.42 859 25.37 1.9 35.4 85 -0.3 31.5 2.267 0.089
01:34 1030 30.42 859 25.37 2 35.7 85 -0.3 31.5 2.38 0.094
01:35 1030 30.42 859 25.37 2.2 35.9 85 -0.2 31.7 2.493 0.098
01:36 1030 30.42 859 25.37 2.3 36.2 84 -0.2 31.7 2.635 0.104
01:37 1030 30.42 859 25.37 2.5 36.5 82 -0.2 31.6 2.776 0.109
01:38 1030 30.42 859 25.37 2.5 36.5 82 -0.3 31.5 2.731 0.108
01:39 1030 30.42 859 25.37 2.4 36.2 83 -0.3 31.5 2.691 0.106
01:40 1030 30.42 859 25.37 2.2 36 83 -0.3 31.5 2.555 0.101
01:41 1030 30.42 859 25.37 2.1 35.8 84 -0.4 31.3 2.408 0.095
01:42 1030 30.42 859 25.37 2 35.6 85 -0.3 31.4 2.323 0.091
01:43 1030 30.42 859 25.37 1.9 35.4 86 -0.2 31.6 2.312 0.091
01:44 1030 30.42 859 25.37 1.9 35.4 86 -0.1 31.8 2.301 0.091
01:45 1030 30.42 859 25.37 1.9 35.4 86 -0.2 31.7 2.312 0.091
01:46 1030 30.42 859 25.37 1.9 35.4 87 -0 32 2.295 0.09
01:47 1030 30.42 859 25.37 1.9 35.4 87 -0 32 2.289 0.09
01:48 1030 30.42 859 25.37 1.9 35.4 87 -0 32 2.306 0.091
01:49 1030 30.42 859 25.37 2 35.5 87 0.1 32.1 2.386 0.094
01:50 1030 30.42 859 25.37 2 35.5 88 0.1 32.2 2.42 0.095
01:51 1030 30.42 859 25.37 2.1 35.8 87 0.2 32.3 2.561 0.101
01:52 1030 30.42 859 25.37 2.3 36.1 86 0.2 32.3 2.742 0.108
01:53 1030 30.42 859 25.37 2.4 36.4 85 0.2 32.4 2.85 0.112
01:54 1030 30.42 859 25.37 2.5 36.5 85 0.2 32.4 2.974 0.117
01:55 1030 30.42 859 25.37 2.6 36.8 84 0.3 32.5 3.037 0.12
01:56 1030 30.42 859 25.37 2.7 36.9 84 0.3 32.5 3.139 0.124
01:57 1030 30.42 859 25.37 2.8 37 84 0.3 32.5 3.173 0.125
01:58 1030 30.42 859 25.37 2.8 37 84 0.3 32.5 3.184 0.125
01:59 1030 30.42 859 25.37 2.9 37.2 83 0.3 32.6 3.235 0.127
02:00 1030 30.42 859 25.37 2.9 37.2 83 0.3 32.6 3.206 0.126
02:01 1030 30.42 859 25.37 2.9 37.2 83 0.3 32.6 3.257 0.128
02:02 1030 30.42 859 25.37 3 37.3 83 0.3 32.5 3.291 0.13
02:03 1030 30.42 859 25.37 3 37.4 82 0.2 32.4 3.32 0.131
02:04 1030 30.42 859 25.37 3 37.3 82 0.2 32.3 3.24 0.128
02:05 1030 30.42 859 25.37 2.9 37.2 82 0 32.1 3.184 0.125
02:06 1030 30.42 859 25.37 2.7 36.9 81 -0.1 31.7 3.037 0.12
02:07 1030 30.42 859 25.37 2.6 36.7 83 -0 31.9 2.895 0.114
02:08 1030 30.42 859 25.37 2.5 36.4 83 -0.1 31.7 2.788 0.11
02:09 1030 30.42 859 25.37 2.3 36.1 84 -0.2 31.6 2.629 0.104
02:10 1030 30.42 859 25.37 2.2 35.9 84 -0.3 31.5 2.572 0.101
02:11 1030 30.42 859 25.37 2.1 35.7 85 -0.3 31.5 2.42 0.095
02:12 1030 30.42 859 25.37 2 35.6 85 -0.3 31.5 2.369 0.093
02:13 1030 30.42 859 25.37 2 35.6 87 0 32.1 2.386 0.094
02:14 1030 30.42 859 25.37 2.1 35.8 81 -0.8 30.5 2.533 0.1
02:15 1030 30.42 859 25.37 2 35.6 86 -0.1 31.8 2.408 0.095
02:16 1030 30.42 859 25.37 2.2 35.9 86 0.1 32.1 2.612 0.103
02:17 1030 30.42 859 25.37 2.5 36.6 83 -0 31.9 2.912 0.115
02:18 1030 30.42 859 25.37 2.5 36.4 82 -0.4 31.4 2.822 0.111
02:19 1030 30.42 859 25.37 2.3 36.2 83 -0.2 31.6 2.703 0.106
02:20 1030 30.42 859 25.37 2.4 36.4 83 -0.2 31.7 2.776 0.109
02:21 1030 30.42 859 25.37 2.2 36 83 -0.4 31.4 2.606 0.103
02:22 1030 30.42 859 25.37 2 35.6 83 -0.5 31.1 2.397 0.094
02:23 1030 30.42 859 25.37 1.8 35.2 86 -0.3 31.5 2.182 0.086
02:24 1030 30.42 859 25.37 1.8 35.2 84 -0.6 30.9 2.142 0.084
02:25 1030 30.42 859 25.37 1.6 34.9 86 -0.5 31.2 1.989 0.078
02:26 1030 30.42 859 25.37 1.6 34.8 86 -0.5 31.2 1.961 0.077
02:27 1030 30.42 859 25.37 1.6 34.9 86 -0.4 31.2 1.984 0.078
02:28 1030 30.42 859 25.37 1.6 34.9 86 -0.4 31.3 1.961 0.077
02:29 1030 30.42 859 25.37 1.5 34.8 86 -0.5 31.1 1.95 0.077
02:30 1030 30.42 859 25.37 1.5 34.7 87 -0.4 31.2 1.91 0.075
02:31 1030 30.42 859 25.37 1.5 34.7 87 -0.4 31.2 1.876 0.074
02:32 1030 30.42 859 25.37 1.5 34.7 87 -0.4 31.2 1.887 0.074
02:33 1030 30.42 859 25.37 1.5 34.8 86 -0.5 31.1 1.95 0.077
02:34 1030 30.42 859 25.37 1.6 34.8 86 -0.5 31 1.904 0.075
02:35 1030 30.42 859 25.37 1.5 34.8 86 -0.5 31 1.91 0.075
02:36 1030 30.42 859 25.37 1.5 34.7 86 -0.6 31 1.865 0.073
02:37 1030 30.42 859 25.37 1.5 34.7 87 -0.4 31.3 1.916 0.075
02:38 1030 30.42 859 25.37 1.6 34.8 87 -0.4 31.3 1.972 0.078
02:39 1030 30.42 859 25.37 1.6 34.8 86 -0.5 31.1 1.927 0.076
02:40 1030 30.42 859 25.37 1.5 34.7 86 -0.5 31.1 1.87 0.074
02:41 1030 30.42 859 25.37 1.4 34.5 87 -0.6 31 1.808 0.071
02:42 1030 30.42 859 25.37 1.3 34.4 88 -0.5 31.1 1.718 0.068
02:43 1030 30.42 859 25.37 1.3 34.4 87 -0.6 31 1.706 0.067
02:44 1030 30.42 859 25.37 1.3 34.3 89 -0.4 31.4 1.684 0.066
02:45 1030 30.42 859 25.37 1.4 34.5 90 -0.1 31.9 1.819 0.072
02:46 1030 30.42 859 25.37 1.7 35 88 -0.2 31.6 2.001 0.079
02:47 1030 30.42 859 25.37 1.8 35.3 87 -0.2 31.7 2.131 0.084
02:48 1030 30.42 859 25.37 2 35.5 86 -0.1 31.8 2.233 0.088
02:49 1030 30.42 859 25.37 2 35.6 86 -0.1 31.8 2.306 0.091
02:50 1030 30.42 859 25.37 2.1 35.7 86 -0 31.9 2.369 0.093
02:51 1030 30.42 859 25.37 2.4 36.3 85 0.1 32.3 2.646 0.104
02:52 1030 30.42 859 25.37 3 37.3 81 0 32 3.116 0.123
02:53 1030 30.42 859 25.37 3.5 38.2 78 0 32.1 3.535 0.139
02:54 1030 30.42 859 25.37 3.9 39.1 75 -0 32 3.976 0.157
02:55 1030 30.42 859 25.37 4.2 39.6 74 -0.1 31.8 4.31 0.17
02:56 1030 30.42 859 25.37 4.2 39.6 74 0 32 4.418 0.174
02:57 1030 30.42 860 25.4 4.3 39.7 74 0.1 32.1 4.48 0.176
02:58 1030 30.42 860 25.4 4.4 39.8 74 0.1 32.1 4.571 0.18
02:59 1030 30.42 859 25.37 4.5 40 73 -0 32 4.803 0.189
03:00 1030 30.42 860 25.4 4.6 40.3 70 -0.3 31.4 5.001 0.197
03:01 1030 30.42 859 25.37 4.5 40.1 71 -0.3 31.4 4.86 0.191
03:02 1030 30.42 860 25.4 4.2 39.6 72 -0.3 31.4 4.582 0.18
03:03 1030 30.42 860 25.4 4 39.3 75 -0 32 4.395 0.173
03:04 1030 30.42 860 25.4 4.1 39.4 74 -0.2 31.7 4.661 0.184
03:05 1030 30.42 860 25.4 4.4 39.9 71 -0.3 31.4 4.831 0.19
03:06 1030 30.42 860 25.4 4.4 39.9 72 -0.3 31.5 4.746 0.187
03:07 1030 30.42 860 25.4 4.4 39.8 73 -0.1 31.8 4.65 0.183
03:08 1030 30.42 860 25.4 4.2 39.6 72 -0.3 31.4 4.577 0.18
03:09 1030 30.42 860 25.4 4 39.3 73 -0.3 31.5 4.418 0.174
03:10 1030 30.42 860 25.4 3.9 39 75 -0.2 31.7 4.293 0.169
03:11 1030 30.42 860 25.4 3.9 39.1 75 -0.1 31.9 4.339 0.171
03:12 1030 30.42 860 25.4 4 39.2 73 -0.4 31.2 4.367 0.172
03:13 1030 30.42 860 25.4 3.6 38.5 74 -0.5 31.1 4.056 0.16
03:14 1030 30.42 860 25.4 3.3 38 76 -0.5 31.2 3.761 0.148
03:15 1030 30.42 860 25.4 3.2 37.8 79 -0.2 31.7 3.586 0.141
03:16 1030 30.42 860 25.4 3.6 38.4 76 -0.3 31.5 3.954 0.156
03:17 1030 30.42 860 25.4 3.8 38.8 73 -0.6 30.9 4.118 0.162
03:18 1030 30.42 860 25.4 3.6 38.4 76 -0.3 31.5 3.937 0.155
03:19 1030 30.42 859 25.37 3.8 38.9 76 -0.1 31.9 4.163 0.164
03:20 1030 30.42 859 25.37 4 39.2 71 -0.7 30.8 4.293 0.169
03:21 1030 30.42 859 25.37 3.5 38.2 73 -0.9 30.4 3.824 0.151
03:22 1030 30.42 859 25.37 2.9 37.2 79 -0.5 31.2 3.303 0.13
03:23 1030 30.42 859 25.37 3 37.4 77 -0.7 30.8 3.325 0.131
03:24 1030 30.42 859 25.37 2.8 37.1 75 -1.2 29.9 3.139 0.124
03:25 1030 30.42 859 25.37 2.4 36.3 78 -1 30.1 2.731 0.108
03:26 1030 30.42 859 25.37 2.3 36.2 80 -0.7 30.8 2.72 0.107
03:27 1030 30.42 859 25.37 2.5 36.5 77 -1.1 30 2.782 0.11
03:28 1030 30.42 859 25.37 2.3 36.1 79 -1 30.2 2.578 0.101
03:29 1030 30.42 860 25.4 2.1 35.7 80 -1 30.1 2.431 0.096
03:30 1030 30.42 859 25.37 1.9 35.4 80 -1.2 29.9 2.318 0.091
03:31 1030 30.42 860 25.4 1.8 35.3 81 -1.1 30 2.199 0.087
03:32 1030 30.42 860 25.4 1.7 35.1 80 -1.3 29.6 2.057 0.081
03:33 1030 30.42 860 25.4 1.5 34.8 81 -1.4 29.4 1.927 0.076
03:34 1030 30.42 860 25.4 1.3 34.4 82 -1.5 29.4 1.729 0.068
03:35 1030 30.42 860 25.4 1.2 34.2 83 -1.3 29.7 1.644 0.065
03:36 1030 30.42 860 25.4 1.2 34.2 83 -1.3 29.7 1.627 0.064
03:37 1030 30.42 860 25.4 1.2 34.2 83 -1.3 29.6 1.604 0.063
03:38 1030 30.42 860 25.4 1.1 34 83 -1.4 29.5 1.519 0.06
03:39 1030 30.42 860 25.4 1 33.9 84 -1.4 29.4 1.452 0.057
03:40 1030 30.42 860 25.4 1 33.8 84 -1.5 29.4 1.384 0.054
03:41 1030 30.42 860 25.4 0.9 33.7 85 -1.3 29.7 1.372 0.054
03:42 1030 30.42 860 25.4 1 33.9 85 -1.3 29.7 1.457 0.057
03:43 1030 30.42 860 25.4 1.2 34.2 86 -0.8 30.5 1.61 0.063
03:44 1030 30.42 860 25.4 1.6 34.8 82 -1.2 29.8 1.893 0.075
03:45 1031 30.45 860 25.4 1.6 34.9 82 -1.1 30 1.933 0.076
03:46 1031 30.45 860 25.4 1.6 34.8 82 -1.3 29.7 1.927 0.076
03:47 1031 30.45 860 25.4 1.3 34.4 82 -1.4 29.5 1.729 0.068
03:48 1031 30.45 860 25.4 1.2 34.2 84 -1.2 29.9 1.627 0.064
03:49 1031 30.45 860 25.4 1.3 34.4 85 -0.9 30.4 1.672 0.066
03:50 1031 30.45 860 25.4 1.6 34.8 85 -0.7 30.7 1.893 0.075
03:51 1031 30.45 860 25.4 1.7 35 82 -1.1 30.1 1.893 0.075
03:52 1031 30.45 860 25.4 1.6 34.9 84 -0.7 30.7 1.893 0.075
03:53 1031 30.45 860 25.4 2 35.6 80 -1.1 30 2.238 0.088
03:54 1031 30.45 860 25.4 2 35.6 79 -1.3 29.6 2.261 0.089
03:55 1031 30.45 860 25.4 1.9 35.5 85 -0.3 31.5 2.261 0.089
03:56 1031 30.45 860 25.4 2.1 35.8 82 -0.6 30.8 2.397 0.094
03:57 1030 30.42 860 25.4 2.2 36 82 -0.5 31.1 2.567 0.101
03:58 1030 30.42 860 25.4 2.6 36.7 79 -0.7 30.8 2.878 0.113
03:59 1030 30.42 860 25.4 2.5 36.4 76 -1.3 29.6 2.805 0.11
04:00 1030 30.42 860 25.4 2.1 35.8 82 -0.6 30.8 2.544 0.1
04:01 1030 30.42 860 25.4 2.3 36.2 82 -0.4 31.3 2.629 0.104
04:02 1030 30.42 860 25.4 2.3 36.1 81 -0.6 30.9 2.561 0.101
04:03 1030 30.42 859 25.37 2.3 36.1 81 -0.7 30.7 2.601 0.102
04:04 1030 30.42 859 25.37 2.3 36.1 79 -0.9 30.3 2.618 0.103
04:05 1030 30.42 859 25.37 2.1 35.8 76 -1.7 29 2.386 0.094
04:06 1030 30.42 859 25.37 1.6 34.8 78 -2 28.5 1.848 0.073
04:07 1030 30.42 859 25.37 1 33.8 81 -2 28.4 1.316 0.052
04:08 1030 30.42 859 25.37 0.6 33.1 83 -2 28.4 1.021 0.04
04:09 1030 30.42 859 25.37 0.4 32.7 84 -2 28.4 .84 0.033
04:10 1030 30.42 859 25.37 0.3 32.6 86 -1.8 28.7 .71 0.028
04:11 1030 30.42 859 25.37 0.2 32.4 87 -1.7 29 .659 0.026
04:12 1030 30.42 859 25.37 0.3 32.5 87 -1.6 29.1 .687 0.027
04:13 1030 30.42 859 25.37 0.4 32.6 88 -1.5 29.3 .704 0.028
04:14 1030 30.42 859 25.37 0.5 32.9 88 -1.3 29.7 .841 0.033
04:15 1030 30.42 859 25.37 0.7 33.2 89 -0.9 30.4 .989 0.039
04:16 1030 30.42 859 25.37 1.1 34 88 -0.7 30.7 1.362 0.054
04:17 1030 30.42 859 25.37 1.5 34.6 84 -0.9 30.4 1.708 0.067
04:18 1030 30.42 860 25.4 1.6 34.9 82 -1.1 30 1.714 0.067
04:19 1030 30.42 860 25.4 1.4 34.5 82 -1.3 29.7 1.488 0.059
04:20 1030 30.42 860 25.4 1.1 33.9 85 -1.2 29.8 1.285 0.051
04:21 1030 30.42 860 25.4 1 33.7 88 -0.9 30.4 1.228 0.048
04:22 1030 30.42 860 25.4 0.9 33.5 88 -1 30.3 1.234 0.049
04:23 1030 30.42 860 25.4 0.9 33.6 88 -0.9 30.5 1.257 0.049
04:24 1030 30.42 860 25.4 0.9 33.6 88 -0.9 30.3 1.224 0.048
04:25 1030 30.42 860 25.4 0.8 33.4 87 -1.1 30 1.156 0.046
04:26 1030 30.42 860 25.4 0.7 33.2 88 -1.1 30 1.071 0.042
04:27 1030 30.42 860 25.4 0.5 33 88 -1.3 29.7 .918 0.036
04:28 1030 30.42 860 25.4 0.4 32.6 89 -1.3 29.6 .788 0.031
04:29 1030 30.42 860 25.4 0.3 32.5 91 -1.1 30.1 .732 0.029
04:30 1030 30.42 860 25.4 0.4 32.6 92 -0.8 30.5 .794 0.031
04:31 1030 30.42 860 25.4 0.5 33 90 -0.9 30.5 .947 0.037
04:32 1030 30.42 860 25.4 0.5 33 89 -1.1 30.1 .891 0.035
04:33 1030 30.42 860 25.4 0.5 32.9 90 -1 30.2 .868 0.034
04:34 1030 30.42 860 25.4 0.4 32.8 90 -1.1 30.1 .823 0.032
04:35 1030 30.42 860 25.4 0.3 32.5 89 -1.3 29.7 .71 0.028
04:36 1030 30.42 860 25.4 0.2 32.4 92 -0.9 30.3 .693 0.027
04:37 1030 30.42 860 25.4 0.4 32.8 93 -0.6 30.9 .857 0.034
04:38 1030 30.42 860 25.4 0.8 33.5 92 -0.3 31.4 1.169 0.046
04:39 1030 30.42 860 25.4 1.1 34.1 90 -0.3 31.4 1.429 0.056
04:40 1030 30.42 860 25.4 1.3 34.3 89 -0.4 31.3 1.577 0.062
04:41 1030 30.42 860 25.4 1.5 34.6 89 -0.2 31.7 1.701 0.067
04:42 1030 30.42 860 25.4 1.6 34.9 87 -0.3 31.4 1.86 0.073
04:43 1030 30.42 860 25.4 1.6 34.9 86 -0.5 31.1 1.86 0.073
04:44 1030 30.42 860 25.4 1.5 34.6 86 -0.6 30.9 1.758 0.069
04:45 1030 30.42 860 25.4 1.3 34.3 86 -0.8 30.6 1.594 0.063
04:46 1030 30.42 860 25.4 1.1 34 87 -0.7 30.7 1.43 0.056
04:47 1030 30.42 860 25.4 0.9 33.7 88 -0.8 30.6 1.317 0.052
04:48 1030 30.42 860 25.4 0.9 33.6 90 -0.6 30.9 1.277 0.05
04:49 1030 30.42 860 25.4 1 33.8 90 -0.5 31.1 1.413 0.056
04:50 1030 30.42 860 25.4 1.1 34 88 -0.7 30.7 1.458 0.057
04:51 1030 30.42 860 25.4 1 33.8 88 -0.7 30.7 1.351 0.053
04:52 1030 30.42 860 25.4 1 33.7 88 -0.7 30.7 1.339 0.053
04:53 1030 30.42 860 25.4 0.9 33.6 89 -0.8 30.6 1.277 0.05
04:54 1030 30.42 860 25.4 0.8 33.5 90 -0.7 30.7 1.215 0.048
04:55 1031 30.45 860 25.4 0.8 33.4 90 -0.7 30.8 1.17 0.046
04:56 1031 30.45 860 25.4 0.8 33.5 91 -0.5 31 1.237 0.049
04:57 1031 30.45 860 25.4 0.9 33.7 90 -0.5 31.1 1.345 0.053
04:58 1031 30.45 860 25.4 1 33.8 90 -0.5 31.2 1.396 0.055
04:59 1031 30.45 860 25.4 1 33.9 90 -0.4 31.2 1.419 0.056
05:00 1031 30.45 860 25.4 1.1 33.9 90 -0.5 31.2 1.447 0.057
05:01 1030 30.42 860 25.4 1 33.9 90 -0.5 31.1 1.413 0.056
05:02 1030 30.42 860 25.4 1.1 33.9 91 -0.3 31.4 1.43 0.056
05:03 1030 30.42 860 25.4 1.2 34.1 90 -0.3 31.5 1.504 0.059
05:04 1030 30.42 860 25.4 1.2 34.1 90 -0.3 31.4 1.532 0.06
05:05 1030 30.42 860 25.4 1.2 34.1 90 -0.3 31.5 1.532 0.06
05:06 1030 30.42 860 25.4 1.2 34.1 90 -0.2 31.6 1.606 0.063
05:07 1030 30.42 860 25.4 1.3 34.4 90 -0.1 31.8 1.651 0.065
05:08 1030 30.42 860 25.4 1.4 34.5 90 -0.1 31.8 1.787 0.07
05:09 1030 30.42 860 25.4 1.5 34.6 89 -0.1 31.8 1.821 0.072
05:10 1030 30.42 860 25.4 1.5 34.7 89 -0.1 31.8 1.849 0.073
05:11 1030 30.42 860 25.4 1.5 34.7 89 -0.1 31.8 1.855 0.073
05:12 1030 30.42 859 25.37 1.5 34.8 89 -0.1 31.8 1.906 0.075
05:13 1030 30.42 859 25.37 1.5 34.8 88 -0.2 31.7 1.894 0.075
05:14 1030 30.42 859 25.37 1.5 34.6 89 -0.2 31.6 1.849 0.073
05:15 1030 30.42 859 25.37 1.4 34.6 90 -0.1 31.8 1.815 0.071
05:16 1030 30.42 859 25.37 1.4 34.6 89 -0.1 31.8 1.821 0.072
05:17 1030 30.42 859 25.37 1.5 34.8 89 -0.1 31.8 1.951 0.077
05:18 1030 30.42 860 25.4 1.6 34.9 88 -0.1 31.8 1.968 0.077
05:19 1030 30.42 860 25.4 1.6 34.9 88 -0.1 31.8 1.951 0.077
05:20 1030 30.42 860 25.4 1.6 34.9 88 -0.1 31.8 1.979 0.078
05:21 1030 30.42 860 25.4 1.7 35 89 -0 32 2.064 0.081
05:22 1031 30.45 860 25.4 1.7 35.1 88 0 32 2.076 0.082
05:23 1031 30.45 860 25.4 1.7 35.1 89 0.1 32.2 2.121 0.084
05:24 1031 30.45 860 25.4 1.9 35.4 89 0.2 32.4 2.234 0.088
05:25 1031 30.45 860 25.4 2 35.6 88 0.3 32.6 2.381 0.094
05:26 1031 30.45 860 25.4 2.2 35.9 88 0.4 32.7 2.489 0.098
05:27 1031 30.45 860 25.4 2.2 36 88 0.4 32.8 2.597 0.102
05:28 1031 30.45 860 25.4 2.4 36.3 88 0.5 33 2.716 0.107
05:29 1031 30.45 860 25.4 2.5 36.6 87 0.6 33.1 2.857 0.112
05:30 1031 30.45 860 25.4 2.7 36.8 86 0.6 33.1 3.072 0.121
05:31 1031 30.45 860 25.4 2.8 37.1 86 0.6 33.2 3.197 0.126
05:32 1031 30.45 860 25.4 2.9 37.2 85 0.6 33.1 3.231 0.127
05:33 1031 30.45 860 25.4 3 37.3 85 0.6 33.1 3.264 0.129
05:34 1031 30.45 860 25.4 3 37.4 85 0.7 33.3 3.32 0.131
05:35 1031 30.45 860 25.4 3 37.4 86 0.8 33.5 3.354 0.132
05:36 1031 30.45 860 25.4 3 37.4 86 0.8 33.5 3.326 0.131
05:37 1031 30.45 860 25.4 3 37.5 86 0.9 33.6 3.411 0.134
05:38 1031 30.45 860 25.4 3.1 37.5 86 1 33.8 3.422 0.135
05:39 1031 30.45 860 25.4 3.1 37.6 87 1.1 33.9 3.416 0.134
05:40 1031 30.45 860 25.4 3.1 37.7 87 1.2 34.1 3.506 0.138
05:41 1031 30.45 860 25.4 3.2 37.7 87 1.2 34.2 3.551 0.14
05:42 1031 30.45 860 25.4 3.2 37.7 87 1.1 34.1 3.534 0.139
05:43 1031 30.45 860 25.4 3.1 37.6 87 1.1 34 3.386 0.133
05:44 1031 30.45 860 25.4 3 37.4 87 1 33.8 3.358 0.132
05:45 1031 30.45 860 25.4 3 37.3 87 0.9 33.7 3.357 0.132
05:46 1031 30.45 860 25.4 3.1 37.5 86 0.9 33.7 3.453 0.136
05:47 1031 30.45 860 25.4 3.2 37.7 86 1 33.8 3.549 0.14
05:48 1031 30.45 860 25.4 3.3 37.9 86 1.1 33.9 3.606 0.142
05:49 1031 30.45 860 25.4 3.3 37.9 85 1.1 33.9 3.634 0.143
05:50 1031 30.45 860 25.4 3.3 38 85 1.1 33.9 3.685 0.145
05:51 1031 30.45 860 25.4 3.3 38 84 0.9 33.7 3.628 0.143
05:52 1031 30.45 860 25.4 3.3 38 84 0.9 33.6 3.644 0.143
05:53 1031 30.45 860 25.4 3.3 38 84 0.8 33.5 3.627 0.143
05:54 1031 30.45 860 25.4 3.3 37.9 84 0.9 33.5 3.61 0.142
05:55 1030 30.42 860 25.4 3.2 37.8 84 0.8 33.4 3.565 0.14
05:56 1030 30.42 860 25.4 3.1 37.6 84 0.7 33.2 3.474 0.137
05:57 1030 30.42 860 25.4 3.1 37.5 84 0.7 33.2 3.412 0.134
05:58 1030 30.42 860 25.4 3 37.4 84 0.6 33.1 3.338 0.131
05:59 1030 30.42 860 25.4 3.1 37.5 83 0.4 32.8 3.451 0.136
06:00 1030 30.42 860 25.4 3.7 38.6 77 0.1 32.1 3.927 0.155
06:01 1030 30.42 860 25.4 4.6 40.2 73 0.2 32.3 4.747 0.187
06:02 1030 30.42 860 25.4 5.2 41.3 70 0.2 32.4 5.308 0.209
06:03 1030 30.42 860 25.4 5.5 42 68 0.2 32.4 5.647 0.222
06:04 1031 30.45 860 25.4 5.7 42.3 68 0.3 32.5 5.806 0.229
06:05 1031 30.45 860 25.4 5.8 42.4 68 0.3 32.6 5.908 0.233
06:06 1031 30.45 860 25.4 5.6 42.1 69 0.3 32.6 5.766 0.227
06:07 1031 30.45 860 25.4 5.5 41.9 69 0.2 32.4 5.743 0.226
06:08 1031 30.45 860 25.4 5.6 42 69 0.3 32.5 5.743 0.226
06:09 1031 30.45 860 25.4 5.7 42.2 68 0.2 32.4 5.879 0.231
06:10 1031 30.45 860 25.4 5.6 42.1 68 0.3 32.5 5.823 0.229
06:11 1031 30.45 860 25.4 5.3 41.6 70 0.3 32.5 5.522 0.217
06:12 1031 30.45 860 25.4 4.9 40.8 71 0.2 32.3 5.154 0.203
06:13 1031 30.45 860 25.4 4.4 40 74 0.1 32.2 4.769 0.188
06:14 1031 30.45 860 25.4 4.1 39.3 75 0 32.1 4.447 0.175
06:15 1031 30.45 860 25.4 3.8 38.8 76 -0.1 31.9 4.209 0.166
06:16 1031 30.45 860 25.4 3.6 38.6 76 -0.2 31.7 4.039 0.159
06:17 1031 30.45 860 25.4 3.4 38.2 77 -0.2 31.6 3.864 0.152
06:18 1031 30.45 860 25.4 3.3 37.9 78 -0.2 31.6 3.699 0.146
06:19 1031 30.45 860 25.4 3.1 37.5 78 -0.4 31.2 3.495 0.138
06:20 1031 30.45 860 25.4 2.8 37.1 79 -0.4 31.3 3.286 0.129
06:21 1031 30.45 860 25.4 2.7 36.9 81 -0.2 31.6 3.173 0.125
06:22 1031 30.45 860 25.4 2.8 37 81 -0.2 31.7 3.19 0.126
06:23 1031 30.45 860 25.4 2.9 37.3 81 -0.1 31.9 3.32 0.131
06:24 1031 30.45 860 25.4 3.1 37.6 80 -0.1 31.9 3.382 0.133
06:25 1031 30.45 860 25.4 3.1 37.6 80 -0.1 31.8 3.377 0.133
06:26 1031 30.45 860 25.4 3.1 37.6 80 -0.1 31.9 3.456 0.136
06:27 1031 30.45 860 25.4 3.1 37.6 79 -0.1 31.8 3.433 0.135
06:28 1031 30.45 860 25.4 3.1 37.6 79 -0.1 31.8 3.439 0.135
06:29 1031 30.45 860 25.4 3.1 37.5 80 -0.1 31.9 3.343 0.132
06:30 1031 30.45 860 25.4 2.9 37.3 80 -0.1 31.8 3.269 0.129
06:31 1031 30.45 860 25.4 2.8 37.1 80 -0.2 31.6 3.173 0.125
06:32 1031 30.45 860 25.4 2.7 36.8 81 -0.2 31.6 2.974 0.117
06:33 1031 30.45 860 25.4 2.5 36.5 82 -0.3 31.5 2.85 0.112
06:34 1031 30.45 860 25.4 2.4 36.3 84 -0.1 31.8 2.737 0.108
06:35 1031 30.45 860 25.4 2.4 36.4 84 -0 31.9 2.788 0.11
06:36 1031 30.45 860 25.4 2.5 36.5 82 -0.2 31.6 2.799 0.11
06:37 1031 30.45 860 25.4 2.4 36.3 83 -0.2 31.6 2.771 0.109
06:38 1031 30.45 860 25.4 2.4 36.3 83 -0.2 31.6 2.754 0.108
06:39 1031 30.45 860 25.4 2.3 36.2 82 -0.4 31.3 2.686 0.106
06:40 1031 30.45 860 25.4 2.2 35.9 84 -0.3 31.4 2.567 0.101
06:41 1031 30.45 860 25.4 2.1 35.8 84 -0.3 31.4 2.488 0.098
06:42 1031 30.45 860 25.4 2 35.6 85 -0.3 31.5 2.408 0.095
06:43 1031 30.45 860 25.4 2 35.6 85 -0.3 31.5 2.397 0.094
06:44 1031 30.45 860 25.4 2 35.6 86 -0.1 31.9 2.437 0.096
06:45 1031 30.45 860 25.4 2.2 35.9 87 0.2 32.3 2.539 0.1
06:46 1031 30.45 860 25.4 2.5 36.5 85 0.3 32.5 2.725 0.107
06:47 1031 30.45 860 25.4 2.8 37 84 0.3 32.5 2.935 0.116
06:48 1031 30.45 860 25.4 3 37.3 81 0 32 3.122 0.123
06:49 1031 30.45 860 25.4 3 37.3 81 -0 31.9 3.025 0.119
06:50 1031 30.45 860 25.4 2.9 37.3 82 0.1 32.3 3.054 0.12
06:51 1031 30.45 860 25.4 3 37.5 81 0.2 32.3 3.178 0.125
06:52 1031 30.45 860 25.4 3.1 37.5 80 -0 31.9 3.195 0.126
06:53 1031 30.45 860 25.4 2.9 37.2 80 -0.2 31.7 3.054 0.12
06:54 1031 30.45 860 25.4 2.7 36.8 81 -0.2 31.7 2.923 0.115
06:55 1031 30.45 860 25.4 2.6 36.6 82 -0.3 31.5 2.793 0.11
06:56 1031 30.45 860 25.4 2.4 36.3 83 -0.3 31.5 2.663 0.105
06:57 1031 30.45 860 25.4 2.5 36.5 85 0.2 32.3 2.754 0.108
06:58 1031 30.45 860 25.4 2.9 37.3 82 0.2 32.4 3.122 0.123
06:59 1031 30.45 860 25.4 3.5 38.3 79 0.2 32.3 3.705 0.146
07:00 1031 30.45 860 25.4 3.9 39 74 -0.3 31.5 4.061 0.16
07:01 1031 30.45 860 25.4 3.6 38.5 76 -0.2 31.7 3.784 0.149
07:02 1031 30.45 860 25.4 3.4 38.2 77 -0.2 31.6 3.597 0.142
07:03 1031 30.45 860 25.4 3.1 37.6 79 -0.2 31.6 3.308 0.13
07:04 1031 30.45 860 25.4 2.8 37 81 -0.2 31.6 3.065 0.121
07:05 1031 30.45 860 25.4 2.6 36.6 82 -0.2 31.7 2.912 0.115
07:06 1031 30.45 860 25.4 2.5 36.5 82 -0.2 31.6 2.861 0.113
07:07 1031 30.45 860 25.4 2.6 36.8 82 -0.2 31.7 2.957 0.116
07:08 1031 30.45 860 25.4 2.7 36.8 82 -0.2 31.7 3.031 0.119
07:09 1031 30.45 860 25.4 2.7 36.9 81 -0.2 31.7 3.076 0.121
07:10 1031 30.45 860 25.4 2.8 37.1 80 -0.2 31.7 3.161 0.124
07:11 1031 30.45 860 25.4 2.8 37.1 79 -0.4 31.3 3.178 0.125
07:12 1031 30.45 860 25.4 2.6 36.7 80 -0.4 31.2 2.963 0.117
07:13 1031 30.45 860 25.4 2.4 36.3 83 -0.3 31.5 2.731 0.108
07:14 1031 30.45 860 25.4 2.1 35.9 86 -0 32 2.544 0.1
07:15 1031 30.45 860 25.4 2.2 36 84 -0.2 31.7 2.725 0.107
07:16 1031 30.45 860 25.4 2.4 36.3 83 -0.2 31.7 2.929 0.115
07:17 1031 30.45 860 25.4 2.6 36.6 82 -0.1 31.8 3.059 0.12
07:18 1031 30.45 860 25.4 2.7 36.9 82 -0.1 31.8 3.173 0.125
07:19 1031 30.45 860 25.4 2.8 37 82 0 32 3.229 0.127
07:20 1031 30.45 860 25.4 2.8 37.1 82 0 32 3.32 0.131
07:21 1031 30.45 860 25.4 2.9 37.3 81 0 32.1 3.41 0.134
07:22 1031 30.45 860 25.4 3 37.5 80 -0 32 3.478 0.137
07:23 1031 30.45 860 25.4 3 37.5 81 0.1 32.2 3.444 0.136
07:24 1031 30.45 860 25.4 3 37.4 81 0 32 3.422 0.135
07:25 1031 30.45 860 25.4 3 37.3 82 0.1 32.2 3.308 0.13
07:26 1031 30.45 860 25.4 2.9 37.2 82 0.1 32.1 3.24 0.128
07:27 1031 30.45 860 25.4 2.8 37 82 0.1 32.1 3.167 0.125
07:28 1031 30.45 860 25.4 2.8 37.1 82 0.1 32.2 3.201 0.126
07:29 1031 30.45 860 25.4 2.8 37 83 0.1 32.2 3.15 0.124
07:30 1031 30.45 860 25.4 2.8 37 83 0.1 32.3 3.218 0.127
07:31 1031 30.45 860 25.4 2.9 37.2 82 0.2 32.3 3.348 0.132
07:32 1031 30.45 860 25.4 3.1 37.6 81 0.2 32.4 3.467 0.136
07:33 1031 30.45 860 25.4 3.4 38.1 80 0.2 32.3 3.705 0.146
07:34 1031 30.45 860 25.4 3.5 38.2 79 0.2 32.4 3.784 0.149
07:35 1031 30.45 860 25.4 3.3 37.9 81 0.3 32.5 3.603 0.142
07:36 1031 30.45 860 25.4 3.1 37.5 82 0.3 32.5 3.439 0.135
07:37 1031 30.45 860 25.4 3 37.4 83 0.3 32.6 3.371 0.133
07:38 1031 30.45 860 25.4 3.1 37.6 82 0.3 32.5 3.433 0.135
07:39 1031 30.45 860 25.4 3.3 38 80 0.3 32.5 3.563 0.14
07:40 1031 30.45 860 25.4 3.5 38.3 80 0.4 32.7 3.693 0.145
07:41 1031 30.45 860 25.4 3.4 38.1 81 0.5 32.9 3.62 0.143
07:42 1031 30.45 860 25.4 3.2 37.7 83 0.6 33 3.484 0.137
07:43 1031 30.45 860 25.4 3.1 37.6 83 0.5 32.9 3.49 0.137
07:44 1031 30.45 860 25.4 3.2 37.8 82 0.5 33 3.569 0.141
07:45 1031 30.45 860 25.4 3.3 38 82 0.5 32.9 3.682 0.145
07:46 1031 30.45 860 25.4 3.5 38.3 81 0.5 32.9 3.829 0.151
07:47 1031 30.45 860 25.4 3.7 38.6 80 0.6 33.1 4.039 0.159
07:48 1031 30.45 860 25.4 3.8 38.8 81 0.7 33.3 4.186 0.165
07:49 1031 30.45 860 25.4 3.8 38.8 81 0.8 33.5 4.163 0.164
07:50 1031 30.45 860 25.4 3.8 38.8 81 0.8 33.5 4.203 0.165
07:51 1031 30.45 860 25.4 3.8 38.8 81 0.8 33.5 4.197 0.165
07:52 1031 30.45 860 25.4 3.8 38.9 81 0.8 33.5 4.231 0.167
07:53 1031 30.45 860 25.4 3.8 38.9 81 0.8 33.5 4.248 0.167
07:54 1031 30.45 860 25.4 3.9 38.9 81 0.8 33.5 4.282 0.169
07:55 1031 30.45 860 25.4 3.9 39 80 0.8 33.4 4.282 0.169
07:56 1031 30.45 860 25.4 3.9 39.1 80 0.7 33.3 4.316 0.17
07:57 1031 30.45 860 25.4 4 39.1 79 0.7 33.3 4.361 0.172
07:58 1031 30.45 860 25.4 3.9 39.1 79 0.6 33.1 4.356 0.171
07:59 1031 30.45 860 25.4 4 39.1 79 0.6 33.1 4.367 0.172
08:00 1031 30.45 860 25.4 4 39.2 79 0.6 33.1 4.378 0.172
08:01 1031 30.45 860 25.4 4 39.1 79 0.7 33.2 4.373 0.172
08:02 1031 30.45 860 25.4 3.9 39 79 0.7 33.2 4.299 0.169
08:03 1031 30.45 860 25.4 3.8 38.9 79 0.6 33.1 4.203 0.165
08:04 1031 30.45 860 25.4 3.7 38.7 80 0.6 33.1 4.146 0.163
08:05 1031 30.45 860 25.4 3.6 38.6 81 0.6 33.2 4.05 0.159
08:06 1031 30.45 860 25.4 3.6 38.4 81 0.6 33.2 3.971 0.156
08:07 1031 30.45 860 25.4 3.6 38.4 81 0.7 33.2 3.92 0.154
08:08 1031 30.45 860 25.4 3.5 38.3 81 0.6 33 3.875 0.153
08:09 1031 30.45 860 25.4 3.6 38.4 81 0.6 33 3.88 0.153
08:10 1031 30.45 860 25.4 3.7 38.7 79 0.4 32.8 4.016 0.158
08:11 1031 30.45 860 25.4 3.9 38.9 78 0.4 32.8 4.129 0.163
08:12 1031 30.45 860 25.4 4.1 39.3 76 0.2 32.4 4.356 0.171
08:13 1031 30.45 860 25.4 4.4 39.9 75 0.3 32.5 4.639 0.183
08:14 1031 30.45 860 25.4 4.5 40.2 74 0.2 32.4 4.848 0.191
08:15 1031 30.45 860 25.4 4.6 40.2 73 0.2 32.4 4.922 0.194
08:16 1031 30.45 860 25.4 4.6 40.2 73 0.2 32.4 4.922 0.194
08:17 1031 30.45 860 25.4 4.5 40.2 73 0.2 32.4 4.905 0.193
08:18 1031 30.45 860 25.4 4.5 40 74 0.2 32.4 4.809 0.189
08:19 1031 30.45 860 25.4 4.4 39.9 74 0.2 32.4 4.752 0.187
08:20 1031 30.45 860 25.4 4.3 39.7 75 0.1 32.3 4.673 0.184
08:21 1031 30.45 860 25.4 4.2 39.6 75 0.2 32.3 4.599 0.181
08:22 1031 30.45 860 25.4 4.2 39.5 75 0.2 32.3 4.514 0.178
08:23 1031 30.45 860 25.4 4.1 39.4 75 0.1 32.2 4.48 0.176
08:24 1031 30.45 860 25.4 4.1 39.4 76 0.2 32.3 4.452 0.175
08:25 1031 30.45 860 25.4 4.1 39.3 76 0.1 32.3 4.441 0.175
08:26 1031 30.45 860 25.4 4.1 39.4 75 0.2 32.3 4.486 0.177
08:27 1031 30.45 860 25.4 4.1 39.5 75 0.1 32.2 4.503 0.177
08:28 1031 30.45 860 25.4 4.2 39.6 75 0.1 32.3 4.582 0.18
08:29 1031 30.45 860 25.4 4.4 39.8 74 0.2 32.3 4.707 0.185
08:30 1031 30.45 860 25.4 4.5 40 74 0.2 32.3 4.78 0.188
08:31 1031 30.45 860 25.4 4.4 39.9 74 0.1 32.3 4.724 0.186
08:32 1031 30.45 860 25.4 4.2 39.6 75 0.1 32.2 4.622 0.182
08:33 1031 30.45 860 25.4 4.1 39.4 76 0.2 32.3 4.475 0.176
08:34 1031 30.45 860 25.4 4 39.2 76 0.1 32.2 4.418 0.174
08:35 1031 30.45 860 25.4 3.9 39.1 76 0 32 4.265 0.168
08:36 1031 30.45 861 25.43 3.8 38.8 76 -0 32 4.135 0.163
08:37 1031 30.45 861 25.43 3.5 38.4 76 -0.2 31.6 3.931 0.155
08:38 1032 30.47 861 25.43 3.2 37.8 80 0.1 32.2 3.591 0.141
08:39 1032 30.47 861 25.43 3.1 37.6 79 -0.1 31.8 3.569 0.141
08:40 1032 30.47 861 25.43 3.1 37.5 80 0 32 3.439 0.135
08:41 1032 30.47 861 25.43 3 37.3 80 -0.1 31.8 3.388 0.133
08:42 1032 30.47 861 25.43 2.9 37.3 81 -0.1 31.9 3.371 0.133
08:43 1032 30.47 861 25.43 2.9 37.2 81 -0 31.9 3.325 0.131
08:44 1032 30.47 861 25.43 2.9 37.3 81 -0 32 3.422 0.135
08:45 1032 30.47 861 25.43 3 37.5 80 -0 32 3.507 0.138
08:46 1032 30.47 861 25.43 3.1 37.6 80 -0 31.9 3.608 0.142
08:47 1032 30.47 861 25.43 3.2 37.8 79 -0.1 31.9 3.614 0.142
08:48 1032 30.47 861 25.43 3.2 37.8 79 -0.1 31.8 3.631 0.143
08:49 1032 30.47 861 25.43 3.3 37.9 79 -0.1 31.9 3.614 0.142
08:50 1032 30.47 861 25.43 3.3 37.9 79 -0.1 31.9 3.665 0.144
08:51 1032 30.47 861 25.43 3.4 38.1 78 -0 31.9 3.727 0.147
08:52 1032 30.47 861 25.43 3.4 38.1 78 -0.1 31.8 3.784 0.149
08:53 1032 30.47 861 25.43 3.4 38.1 78 -0 32 3.784 0.149
09:09 1032 30.47 861 25.43 3 37.5 85 0.7 33.3 3.41 0.134
09:10 1032 30.47 861 25.43 2.8 37 85 0.5 32.9 3.139 0.124
09:17 1032 30.47 861 25.43 3.2 37.7 80 0.1 32.2 3.558 0.14
09:21 1032 30.47 861 25.43 4.1 39.4 78 0.7 33.2 4.158 0.164
09:22 1032 30.47 861 25.43 3.9 39.1 79 0.6 33 4.209 0.166
09:23 1032 30.47 861 25.43 4 39.1 80 0.8 33.5 4.271 0.168
09:24 1032 30.47 861 25.43 4.2 39.6 77 0.5 32.9 4.577 0.18
09:25 1032 30.47 861 25.43 4.8 40.6 75 0.8 33.4 4.99 0.196
09:26 1032 30.47 861 25.43 5.1 41.2 74 0.9 33.6 5.29 0.208
09:27 1032 30.47 861 25.43 5.4 41.8 70 0.5 32.8 5.567 0.219
09:28 1032 30.47 861 25.43 5.5 41.9 72 0.8 33.5 5.658 0.223
09:29 1032 30.47 861 25.43 5.6 42 72 0.9 33.6 5.726 0.225
09:30 1032 30.47 861 25.43 5.6 42 71 0.7 33.3 5.748 0.226
09:31 1032 30.47 861 25.43 5.6 42 72 1 33.7 5.726 0.225
09:32 1032 30.47 861 25.43 5.5 41.9 73 1.1 34.1 5.686 0.224
09:33 1032 30.47 861 25.43 5.5 41.9 74 1.2 34.2 5.658 0.223
09:34 1032 30.47 861 25.43 5.4 41.7 73 1 33.7 5.624 0.221
09:35 1032 30.47 861 25.43 5.3 41.6 74 1 33.8 5.556 0.219
09:45 1032 30.47 861 25.43 5.3 41.5 75 1.1 34 5.51 0.217
09:46 1032 30.47 861 25.43 5.1 41.1 76 1.1 34 5.403 0.213
09:47 1032 30.47 861 25.43 5.1 41.2 78 1.5 34.7 5.437 0.214
09:48 1032 30.47 861 25.43 5.2 41.4 79 2 35.5 5.545 0.218
09:49 1032 30.47 861 25.43 5.5 41.9 80 2.2 36 5.731 0.226
09:50 1032 30.47 861 25.43 5.8 42.4 77 2.1 35.7 5.924 0.233
09:51 1032 30.47 861 25.43 6 42.8 75 2 35.6 6.15 0.242
09:52 1032 30.47 861 25.43 6.3 43.3 74 1.9 35.4 6.32 0.249
09:53 1032 30.47 861 25.43 6.6 43.8 71 1.7 35.1 6.535 0.257
09:54 1032 30.47 861 25.43 6.9 44.3 69 1.5 34.7 6.818 0.268
09:55 1032 30.47 861 25.43 7.1 44.8 69 1.9 35.4 7.06 0.278
09:56 1032 30.47 861 25.43 7.5 45.4 70 2.4 36.4 7.32 0.288
09:57 1032 30.47 861 25.43 7.8 46.1 69 2.5 36.5 7.58 0.298
09:58 1032 30.47 861 25.43 8.2 46.7 66 2.2 36 7.82 0.308
09:59 1032 30.47 861 25.43 8.3 47 67 2.5 36.5 7.97 0.314
10:00 1032 30.47 861 25.43 8.4 47.1 67 2.7 36.9 8.11 0.319
10:01 1032 30.47 861 25.43 8.5 47.3 67 2.8 37 8.27 0.326
10:02 1032 30.47 861 25.43 8.7 47.6 67 3 37.4 8.43 0.332
10:03 1032 30.47 861 25.43 8.9 48 67 3.1 37.7 8.65 0.341
10:04 1032 30.47 861 25.43 9 48.2 68 3.3 38 8.81 0.347
10:05 1032 30.47 861 25.43 9.1 48.4 64 2.6 36.7 8.96 0.353
10:06 1032 30.47 861 25.43 9.3 48.7 62 2.3 36.2 9.1 0.358
10:07 1032 30.47 861 25.43 9.4 48.8 60 2 35.5 9.22 0.363
10:08 1032 30.47 861 25.43 9.4 48.8 60 2 35.6 9.27 0.365
10:09 1032 30.47 861 25.43 9.4 48.9 59 1.8 35.3 9.29 0.366
10:10 1032 30.47 861 25.43 9.4 48.8 60 2 35.6 9.3 0.366
10:11 1032 30.47 861 25.43 9.4 48.9 62 2.5 36.5 9.36 0.369
10:12 1032 30.47 861 25.43 9.4 48.9 61 2.4 36.2 9.37 0.369
10:13 1032 30.47 861 25.43 9.4 48.9 56 1.2 34.2 9.4 0.37
10:14 1032 30.47 861 25.43 9.4 49 59 1.8 35.2 9.41 0.37
10:15 1032 30.47 861 25.43 9.4 48.9 60 2.1 35.8 9.36 0.369
10:16 1032 30.47 861 25.43 9.3 48.8 60 2 35.6 9.33 0.367
10:17 1032 30.47 861 25.43 9.3 48.7 61 2.2 36 9.33 0.367
10:18 1032 30.47 861 25.43 9.2 48.6 58 1.4 34.5 9.32 0.367
10:19 1032 30.47 861 25.43 9.2 48.5 62 2.3 36.2 9.24 0.364
10:20 1032 30.47 861 25.43 9.1 48.4 59 1.5 34.6 9.23 0.363
10:21 1032 30.47 861 25.43 9.2 48.5 60 1.8 35.3 9.35 0.368
10:22 1032 30.47 861 25.43 9.3 48.7 59 1.7 35 9.46 0.372
10:23 1032 30.47 861 25.43 9.4 48.8 59 1.8 35.3 9.57 0.377
10:24 1032 30.47 861 25.43 9.4 48.9 58 1.5 34.6 9.62 0.379
10:25 1032 30.47 861 25.43 9.4 48.9 55 1 33.7 9.64 0.38
10:26 1032 30.47 861 25.43 9.5 49 59 1.8 35.3 9.67 0.381
10:27 1032 30.47 861 25.43 9.6 49.3 56 1.3 34.4 9.84 0.387
10:28 1032 30.47 861 25.43 9.9 49.7 54 1 33.8 10.04 0.395
10:29 1032 30.47 861 25.43 10.2 50.3 55 1.7 35 10.3 0.406
10:30 1032 30.47 861 25.43 10.4 50.7 53 1.3 34.3 10.52 0.414
10:31 1032 30.47 861 25.43 10.6 51.1 52 1.1 33.9 10.71 0.422
10:32 1032 30.47 861 25.43 10.8 51.4 52 1.5 34.7 10.94 0.431
10:33 1032 30.47 861 25.43 11 51.7 52 1.6 35 11.12 0.438
10:34 1032 30.47 861 25.43 11.2 52.1 52 1.8 35.3 11.27 0.444
10:35 1032 30.47 861 25.43 11.3 52.4 52 2 35.5 11.39 0.448
10:36 1032 30.47 861 25.43 11.5 52.7 52 2 35.5 11.52 0.454
10:37 1032 30.47 861 25.43 11.7 53 51 2 35.7 11.63 0.458
10:38 1032 30.47 861 25.43 11.8 53.3 53 2.6 36.7 11.75 0.463
10:39 1032 30.47 861 25.43 12 53.5 49 1.6 34.8 11.88 0.468
10:40 1032 30.47 861 25.43 12 53.5 48 1.2 34.2 11.84 0.466
10:41 1032 30.47 861 25.43 11.9 53.4 48 1.2 34.1 11.74 0.462
10:42 1032 30.47 861 25.43 11.7 53 51 2 35.5 11.56 0.455
10:43 1032 30.47 861 25.43 11.5 52.7 52 2 35.6 11.56 0.455
10:44 1032 30.47 861 25.43 11.5 52.7 51 1.6 35 11.51 0.453
10:45 1032 30.47 861 25.43 11.4 52.4 50 1.5 34.6 11.42 0.45
10:46 1032 30.47 861 25.43 11.3 52.3 51 1.5 34.7 11.35 0.447
10:47 1032 30.47 861 25.43 11.3 52.3 54 2.5 36.4 11.4 0.449
10:48 1032 30.47 861 25.43 11.4 52.5 48 0.7 33.3 11.55 0.455
10:49 1032 30.47 861 25.43 11.5 52.7 50 1.6 34.9 11.55 0.455
10:50 1032 30.47 861 25.43 11.6 52.8 49 1.4 34.4 11.68 0.46
10:51 1032 30.47 861 25.43 11.7 53 53 2.4 36.4 11.73 0.462
10:52 1032 30.47 861 25.43 11.8 53.2 49 1.5 34.8 11.88 0.468
10:53 1032 30.47 861 25.43 11.9 53.4 50 2 35.5 11.94 0.47
10:54 1032 30.47 861 25.43 12 53.6 49 1.8 35.2 12.05 0.474
10:55 1032 30.47 861 25.43 12.1 53.8 47 1.3 34.3 12.12 0.477
10:56 1032 30.47 862 25.45 12.1 53.8 49 1.7 35.1 12.05 0.474
10:57 1032 30.47 862 25.45 12.1 53.7 46 0.8 33.5 12.03 0.474
10:58 1032 30.47 862 25.45 11.9 53.3 49 1.5 34.7 11.85 0.467
10:59 1032 30.47 862 25.45 11.7 53.1 49 1.5 34.6 11.81 0.465
11:00 1032 30.47 862 25.45 11.7 53 51 1.9 35.4 11.8 0.465
11:01 1032 30.47 862 25.45 11.7 53.1 48 1 33.8 11.78 0.464
11:02 1032 30.47 862 25.45 11.6 52.9 50 1.7 35 11.69 0.46
11:03 1032 30.47 862 25.45 11.6 52.9 48 1 33.8 11.75 0.463
11:04 1032 30.47 862 25.45 11.6 52.9 50 1.7 35.1 11.73 0.462
11:05 1032 30.47 862 25.45 11.7 53 52 2.2 36 11.9 0.469
11:06 1032 30.47 862 25.45 11.8 53.2 48 1.2 34.1 12 0.472
11:07 1032 30.47 862 25.45 11.9 53.3 48 1.2 34.1 11.98 0.472
11:08 1032 30.47 862 25.45 11.9 53.4 48 1.2 34.2 12.04 0.474
11:09 1032 30.47 862 25.45 11.9 53.5 48 1.3 34.4 12.09 0.476
11:10 1032 30.47 862 25.45 11.9 53.4 50 1.8 35.3 12.1 0.476
11:11 1032 30.47 861 25.43 11.9 53.5 46 0.8 33.5 12.16 0.479
11:12 1032 30.47 861 25.43 11.9 53.4 48 1.4 34.6 12.08 0.476
11:13 1032 30.47 861 25.43 11.9 53.4 49 1.5 34.7 12.08 0.476
11:14 1032 30.47 861 25.43 11.9 53.4 47 0.9 33.7 12.08 0.476
11:15 1032 30.47 861 25.43 11.9 53.3 51 2 35.6 12.06 0.475
11:16 1032 30.47 861 25.43 12 53.6 48 1.2 34.2 12.22 0.481
11:17 1032 30.47 861 25.43 12.1 53.8 48 1.4 34.6 12.34 0.486
11:18 1032 30.47 861 25.43 12.2 53.9 47 1.4 34.5 12.37 0.487
11:19 1032 30.47 861 25.43 12.2 53.9 48 1.5 34.6 12.31 0.485
11:20 1032 30.47 861 25.43 12.1 53.7 47 1.3 34.3 12.26 0.483
11:21 1032 30.47 862 25.45 12 53.6 48 1.3 34.4 12.18 0.48
11:22 1032 30.47 861 25.43 12 53.6 48 1.3 34.4 12.18 0.48
11:23 1032 30.47 861 25.43 12 53.6 48 1.3 34.3 12.2 0.48
11:24 1032 30.47 861 25.43 12.1 53.8 48 1.4 34.6 12.31 0.485
11:25 1032 30.47 861 25.43 12.3 54.1 47 1.2 34.2 12.5 0.492
11:26 1032 30.47 861 25.43 12.5 54.4 46 1.1 34 12.66 0.498
11:27 1032 30.47 861 25.43 12.6 54.6 48 1.9 35.5 12.7 0.5
11:28 1032 30.47 861 25.43 12.7 54.8 45 1.2 34.2 12.8 0.504
11:29 1032 30.47 861 25.43 12.7 54.9 45 1.3 34.3 12.8 0.504
11:30 1032 30.47 861 25.43 12.7 54.9 45 1.2 34.1 12.86 0.506
11:31 1032 30.47 861 25.43 12.8 55 45 1.3 34.3 12.81 0.504
11:32 1032 30.47 861 25.43 12.8 55 45 1.2 34.2 12.84 0.506
11:33 1032 30.47 861 25.43 12.9 55.1 48 2.1 35.7 12.95 0.51
11:34 1032 30.47 861 25.43 13.1 55.5 45 1.6 34.9 13.16 0.518
11:35 1032 30.47 861 25.43 13.2 55.8 44 1.4 34.6 13.37 0.526
11:36 1032 30.47 862 25.45 13.2 55.7 44 1.2 34.2 13.34 0.525
11:37 1032 30.47 862 25.45 13.2 55.8 45 1.5 34.8 13.27 0.522
11:38 1032 30.47 862 25.45 13.3 55.9 48 2.4 36.4 13.32 0.524
11:39 1032 30.47 862 25.45 13.4 56.1 45 1.9 35.4 13.51 0.532
11:40 1032 30.47 861 25.43 13.5 56.3 47 2.4 36.3 13.73 0.541
11:41 1032 30.47 862 25.45 13.7 56.6 43 1.5 34.7 13.96 0.55
11:42 1032 30.47 862 25.45 13.6 56.5 45 1.9 35.4 13.91 0.548
11:43 1032 30.47 861 25.43 13.6 56.5 45 2.1 35.8 13.95 0.549
11:44 1032 30.47 861 25.43 13.7 56.7 46 2.3 36.1 14.01 0.552
11:45 1032 30.47 861 25.43 13.8 56.9 44 2 35.6 14.09 0.555
11:46 1032 30.47 861 25.43 13.9 56.9 47 2.7 36.9 14.15 0.557
11:47 1032 30.47 861 25.43 14 57.1 44 1.9 35.4 14.2 0.559
11:48 1032 30.47 861 25.43 14.1 57.4 44 2.1 35.9 14.31 0.563
11:49 1032 30.47 861 25.43 14.2 57.6 46 2.8 37 14.41 0.567
11:50 1032 30.47 861 25.43 14.3 57.8 44 2.3 36.1 14.49 0.57
11:51 1032 30.47 861 25.43 14.5 58 45 2.8 37.1 14.68 0.578
11:52 1032 30.47 861 25.43 14.6 58.2 46 3.1 37.5 14.73 0.58
11:53 1032 30.47 861 25.43 14.7 58.4 43 2.2 35.9 14.71 0.579
11:54 1032 30.47 861 25.43 14.6 58.3 45 2.8 37.1 14.67 0.578
11:55 1032 30.47 861 25.43 14.6 58.3 46 3.2 37.7 14.77 0.581
11:56 1032 30.47 861 25.43 14.8 58.6 45 3.1 37.6 14.99 0.59
11:57 1032 30.47 861 25.43 15.1 59.2 43 2.7 36.8 15.32 0.603
11:58 1032 30.47 861 25.43 15.4 59.7 42 2.7 36.9 15.65 0.616
11:59 1032 30.47 861 25.43 15.6 60 41 2.5 36.4 15.86 0.624
12:00 1032 30.47 861 25.43 15.7 60.3 42 3 37.4 16.03 0.631
12:01 1032 30.47 861 25.43 15.8 60.4 40 2.3 36.1 16.17 0.637
12:02 1032 30.47 861 25.43 15.8 60.5 38 1.6 34.9 16.17 0.637
12:03 1032 30.47 861 25.43 15.9 60.6 40 2.4 36.2 16.21 0.638
12:04 1032 30.47 861 25.43 15.9 60.6 37 1.3 34.3 16.28 0.641
12:05 1032 30.47 861 25.43 15.9 60.7 41 2.8 37 16.29 0.641
12:06 1032 30.47 861 25.43 16 60.9 40 2.4 36.3 16.41 0.646
12:07 1032 30.47 861 25.43 16.1 60.9 40 2.4 36.3 16.42 0.646
12:08 1032 30.47 861 25.43 16.1 61 39 2.3 36.1 16.49 0.649
12:09 1032 30.47 861 25.43 16.2 61.1 38 2 35.5 16.52 0.65
12:10 1032 30.47 861 25.43 16.1 60.9 38 1.7 35 16.49 0.649
12:11 1032 30.47 861 25.43 16 60.9 39 2 35.6 16.44 0.647
12:12 1032 30.47 861 25.43 16.1 60.9 39 2.3 36.1 16.47 0.648
12:13 1032 30.47 861 25.43 16.1 61 38 2 35.5 16.49 0.649
12:14 1032 30.47 861 25.43 16.2 61.1 39 2.3 36.1 16.61 0.654
12:15 1032 30.47 861 25.43 16.3 61.3 39 2.3 36.1 16.67 0.656
12:16 1032 30.47 861 25.43 16.3 61.3 38 1.9 35.4 16.65 0.656
12:17 1032 30.47 861 25.43 16.2 61.1 38 1.9 35.3 16.54 0.651
12:18 1032 30.47 861 25.43 16.1 60.9 39 2.3 36.1 16.46 0.648
12:19 1032 30.47 861 25.43 16.1 61 39 2.1 35.8 16.54 0.651
12:20 1032 30.47 861 25.43 16.2 61.2 39 2.3 36.1 16.53 0.651
12:21 1032 30.47 861 25.43 16.2 61.2 37 1.7 35.1 16.59 0.653
12:22 1032 30.47 861 25.43 16.2 61.1 38 1.8 35.2 16.54 0.651
12:23 1032 30.47 861 25.43 16 60.8 38 1.6 34.9 16.33 0.643
12:24 1032 30.47 861 25.43 15.7 60.3 41 2.6 36.6 16.12 0.635
12:25 1032 30.47 861 25.43 15.8 60.5 41 2.6 36.7 16.24 0.639
12:26 1032 30.47 861 25.43 16 60.7 39 2.2 35.9 16.35 0.644
12:27 1032 30.47 861 25.43 16.1 61 37 1.5 34.7 16.46 0.648
12:28 1032 30.47 861 25.43 16 60.8 37 1.5 34.7 16.45 0.648
12:29 1032 30.47 861 25.43 16.1 60.9 38 2 35.7 16.45 0.648
12:30 1032 30.47 861 25.43 16.1 60.9 37 1.6 34.9 16.5 0.65
12:31 1032 30.47 861 25.43 16 60.9 39 2.1 35.9 16.42 0.646
12:32 1032 30.47 861 25.43 16 60.8 38 1.9 35.5 16.39 0.645
12:33 1032 30.47 861 25.43 16 60.8 37 1.6 34.9 16.4 0.646
12:34 1032 30.47 861 25.43 16.1 60.9 39 2.1 35.7 16.42 0.646
12:35 1032 30.47 861 25.43 16.2 61.1 39 2.3 36.2 16.54 0.651
12:36 1032 30.47 861 25.43 16.2 61.1 37 1.7 35.1 16.58 0.653
12:37 1032 30.47 861 25.43 16.1 61 40 2.7 36.9 16.48 0.649
12:38 1032 30.47 861 25.43 15.9 60.6 39 2.1 35.8 16.28 0.641
12:39 1032 30.47 861 25.43 15.9 60.5 41 2.7 36.9 16.21 0.638
12:40 1032 30.47 861 25.43 15.9 60.7 38 1.8 35.2 16.3 0.642
12:41 1032 30.47 861 25.43 15.9 60.6 38 1.8 35.3 16.25 0.64
12:42 1032 30.47 861 25.43 15.8 60.5 40 2.5 36.4 16.21 0.638
12:43 1032 30.47 861 25.43 15.9 60.5 39 1.9 35.5 16.26 0.64